Time;durP1;ratioP1;P1;durP2;ratioP2;P2;SDS_P1;SDS_P2;PMS_P1;PMS_P2;Temp;Humidity;BMP_temperature;BMP_pressure;BME280_temperature;BME280_humidity;BME280_pressure;Samples;Min_cycle;Max_cycle;Signal;HPM_P1;HPM_P2
2023/02/14 00:00:53;;;;;;;13.38;12.57;;;;;;;;;;4999604;28;20105;-67
2023/02/14 00:03:19;;;;;;;11.60;10.88;;;;;;;;;;4999558;28;20121;-66
2023/02/14 00:05:44;;;;;;;12.52;11.75;;;;;;;;;;4994000;28;20119;-66
2023/02/14 00:08:09;;;;;;;13.98;12.98;;;;;;;;;;4998573;28;20108;-66
2023/02/14 00:10:35;;;;;;;13.43;12.32;;;;;;;;;;4996972;28;20042;-68
2023/02/14 00:13:00;;;;;;;12.60;11.70;;;;;;;;;;4997823;28;20036;-65
2023/02/14 00:15:26;;;;;;;12.65;11.77;;;;;;;;;;4994281;28;20059;-65
2023/02/14 00:17:54;;;;;;;10.70;9.95;;;;;;;;;;4997481;28;20037;-66
2023/02/14 00:20:22;;;;;;;10.77;9.98;;;;;;;;;;4996592;28;20030;-65
2023/02/14 00:22:47;;;;;;;10.57;9.88;;;;;;;;;;4997176;28;20401;-65
2023/02/14 00:25:13;;;;;;;10.75;9.95;;;;;;;;;;4994194;28;20053;-66
2023/02/14 00:27:39;;;;;;;9.68;8.90;;;;;;;;;;4995659;28;20376;-65
2023/02/14 00:30:07;;;;;;;10.80;10.05;;;;;;;;;;4998599;28;20060;-66
2023/02/14 00:32:32;;;;;;;10.52;9.82;;;;;;;;;;4997617;28;20240;-66
2023/02/14 00:34:57;;;;;;;10.07;9.35;;;;;;;;;;4997679;28;20034;-65
2023/02/14 00:37:23;;;;;;;10.35;9.50;;;;;;;;;;4994496;28;20168;-66
2023/02/14 00:39:49;;;;;;;10.00;9.35;;;;;;;;;;4996416;28;20119;-65
2023/02/14 00:42:15;;;;;;;10.82;10.07;;;;;;;;;;4997143;28;20081;-65
2023/02/14 00:44:40;;;;;;;10.55;9.80;;;;;;;;;;4993342;28;20042;-65
2023/02/14 00:47:05;;;;;;;10.55;9.65;;;;;;;;;;4996584;28;20809;-66
2023/02/14 00:49:31;;;;;;;9.90;9.20;;;;;;;;;;4994335;28;20038;-66
2023/02/14 00:51:56;;;;;;;10.68;9.88;;;;;;;;;;4995176;28;20026;-66
2023/02/14 00:54:21;;;;;;;11.40;10.55;;;;;;;;;;4995321;28;20101;-66
2023/02/14 00:56:47;;;;;;;11.13;10.35;;;;;;;;;;4993943;28;20093;-66
2023/02/14 00:59:12;;;;;;;9.93;9.23;;;;;;;;;;4996082;28;20050;-66
2023/02/14 01:01:38;;;;;;;9.95;9.13;;;;;;;;;;4995484;28;20038;-66
2023/02/14 01:04:04;;;;;;;10.20;9.50;;;;;;;;;;4994778;28;20052;-66
2023/02/14 01:06:29;;;;;;;10.55;9.75;;;;;;;;;;4994865;28;20807;-66
2023/02/14 01:08:55;;;;;;;11.50;10.68;;;;;;;;;;4995270;28;20464;-66
2023/02/14 01:11:22;;;;;;;10.68;9.98;;;;;;;;;;4994718;28;20472;-64
2023/02/14 01:13:49;;;;;;;9.98;9.27;;;;;;;;;;4998239;28;20045;-65
2023/02/14 01:16:17;;;;;;;10.82;10.02;;;;;;;;;;4996987;28;20034;-66
2023/02/14 01:18:43;;;;;;;11.30;10.50;;;;;;;;;;4993549;28;20073;-66
2023/02/14 01:21:18;;;;;;;10.82;10.05;;;;;;;;;;4994571;28;20068;-65
2023/02/14 01:23:45;;;;;;;10.65;9.90;;;;;;;;;;4995924;28;20034;-66
2023/02/14 01:26:11;;;;;;;11.70;11.00;;;;;;;;;;4996934;28;20045;-66
2023/02/14 01:28:37;;;;;;;12.27;11.43;;;;;;;;;;4993066;28;20041;-66
2023/02/14 01:31:10;;;;;;;11.57;10.77;;;;;;;;;;4997758;28;20048;-65
2023/02/14 01:33:36;;;;;;;11.52;10.82;;;;;;;;;;4992725;28;20038;-66
2023/02/14 01:36:01;;;;;;;11.65;10.85;;;;;;;;;;4993744;28;20030;-66
2023/02/14 01:38:27;;;;;;;10.93;10.15;;;;;;;;;;4995184;28;20248;-65
2023/02/14 01:40:52;;;;;;;12.50;11.52;;;;;;;;;;4995007;28;20038;-66
2023/02/14 01:43:17;;;;;;;12.20;11.15;;;;;;;;;;4995268;28;20070;-65
2023/02/14 01:45:43;;;;;;;12.18;11.32;;;;;;;;;;4994053;28;20030;-66
2023/02/14 01:48:09;;;;;;;10.70;10.00;;;;;;;;;;4993759;28;20049;-66
2023/02/14 01:50:40;;;;;;;12.27;11.38;;;;;;;;;;4992114;28;20685;-65
2023/02/14 01:53:10;;;;;;;12.15;11.25;;;;;;;;;;4995587;28;20069;-66
2023/02/14 01:55:41;;;;;;;11.32;10.48;;;;;;;;;;4995426;28;20059;-66
2023/02/14 01:58:15;;;;;;;12.38;11.45;;;;;;;;;;4998090;28;20121;-66
2023/02/14 02:00:57;;;;;;;12.80;11.70;;;;;;;;;;4993239;28;20037;-66
2023/02/14 02:03:41;;;;;;;11.00;10.30;;;;;;;;;;4993763;28;20040;-65
2023/02/14 02:06:10;;;;;;;11.50;10.73;;;;;;;;;;4992322;28;20041;-65
2023/02/14 02:08:41;;;;;;;11.88;11.07;;;;;;;;;;4994704;28;20124;-66
2023/02/14 02:11:06;;;;;;;11.90;11.07;;;;;;;;;;4995179;28;20527;-66
2023/02/14 02:13:32;;;;;;;12.80;11.80;;;;;;;;;;4992638;28;20033;-66
2023/02/14 02:16:20;;;;;;;11.43;10.73;;;;;;;;;;4994133;28;20069;-66
2023/02/14 02:19:16;;;;;;;12.00;11.20;;;;;;;;;;4992067;28;20042;-65
2023/02/14 02:22:19;;;;;;;11.52;10.73;;;;;;;;;;4993397;28;20480;-66
2023/02/14 02:24:57;;;;;;;11.82;10.65;;;;;;;;;;4991947;28;20080;-66
2023/02/14 02:27:25;;;;;;;12.05;11.25;;;;;;;;;;4992995;28;20524;-66
2023/02/14 02:30:17;;;;;;;12.07;11.18;;;;;;;;;;4996538;28;20040;-65
2023/02/14 02:32:58;;;;;;;11.02;10.32;;;;;;;;;;4993517;28;20049;-65
2023/02/14 02:35:47;;;;;;;11.73;10.95;;;;;;;;;;4993281;28;20034;-66
2023/02/14 02:38:28;;;;;;;10.27;9.57;;;;;;;;;;4993670;28;20072;-66
2023/02/14 02:41:17;;;;;;;11.93;11.05;;;;;;;;;;4991895;28;20033;-65
2023/02/14 02:43:53;;;;;;;11.32;10.27;;;;;;;;;;4993378;28;20045;-65
2023/02/14 02:46:48;;;;;;;11.45;10.68;;;;;;;;;;4994329;28;20042;-66
2023/02/14 02:56:44;;;;;;;13.82;12.43;;;;;;;;;;4994196;28;20044;-66
2023/02/14 02:58:19;;;;;;;10.73;10.02;;;;;;;;;;4994041;28;20037;-65
2023/02/14 03:00:47;;;;;;;11.60;10.73;;;;;;;;;;4995511;28;20031;-66
2023/02/14 03:05:57;;;;;;;11.15;10.35;;;;;;;;;;4994577;28;20053;-66
2023/02/14 03:08:23;;;;;;;9.82;9.13;;;;;;;;;;4996398;28;20042;-66
2023/02/14 03:10:48;;;;;;;10.10;9.40;;;;;;;;;;4994064;28;20050;-65
2023/02/14 03:13:35;;;;;;;10.38;9.45;;;;;;;;;;5000061;28;20084;-66
2023/02/14 03:16:25;;;;;;;12.27;11.32;;;;;;;;;;4994749;28;20658;-65
2023/02/14 03:22:17;;;;;;;11.55;10.35;;;;;;;;;;4992622;28;20041;-66
2023/02/14 03:25:09;;;;;;;12.75;11.55;;;;;;;;;;4995097;28;20049;-66
2023/02/14 03:27:42;;;;;;;10.65;9.75;;;;;;;;;;4993665;28;20092;-66
2023/02/14 03:30:24;;;;;;;10.73;9.60;;;;;;;;;;4998663;28;20554;-66
2023/02/14 03:33:04;;;;;;;9.45;8.80;;;;;;;;;;4996411;28;20026;-65
2023/02/14 03:35:35;;;;;;;10.40;9.68;;;;;;;;;;5003649;28;20079;-66
2023/02/14 03:38:12;;;;;;;;;;;;;;;;;;4997538;28;20065;-66
2023/02/14 03:40:48;;;;;;;10.55;9.75;;;;;;;;;;4996517;28;19940;-66
2023/02/14 03:43:24;;;;;;;9.88;9.23;;;;;;;;;;4997911;28;20038;-66
2023/02/14 03:46:07;;;;;;;10.02;9.32;;;;;;;;;;4993780;28;20034;-66
2023/02/14 03:48:34;;;;;;;14.60;10.45;;;;;;;;;;4995336;28;20566;-66
2023/02/14 03:51:01;;;;;;;11.77;10.85;;;;;;;;;;4996115;28;20100;-66
2023/02/14 03:53:30;;;;;;;10.45;9.75;;;;;;;;;;4998016;28;20316;-66
2023/02/14 03:56:07;;;;;;;11.00;10.20;;;;;;;;;;4995134;28;20492;-66
2023/02/14 03:58:43;;;;;;;11.35;10.55;;;;;;;;;;4995141;28;20088;-66
2023/02/14 04:01:18;;;;;;;10.75;9.95;;;;;;;;;;4995948;28;20288;-66
2023/02/14 04:03:44;;;;;;;11.98;10.93;;;;;;;;;;4997789;28;20041;-66
2023/02/14 04:06:09;;;;;;;12.10;11.18;;;;;;;;;;4998515;28;20038;-66
2023/02/14 04:08:35;;;;;;;11.88;10.98;;;;;;;;;;4993702;28;20032;-65
2023/02/14 04:11:03;;;;;;;10.43;9.73;;;;;;;;;;4997611;28;20092;-65
2023/02/14 04:13:28;;;;;;;12.73;11.55;;;;;;;;;;4995350;28;20030;-65
2023/02/14 04:15:53;;;;;;;12.05;11.10;;;;;;;;;;4993295;28;20030;-65
2023/02/14 04:21:04;;;;;;;11.43;10.57;;;;;;;;;;4996666;28;20496;-66
2023/02/14 04:23:29;;;;;;;10.80;10.00;;;;;;;;;;4998091;28;20080;-66
2023/02/14 04:25:55;;;;;;;11.82;10.93;;;;;;;;;;4996131;28;20772;-65
2023/02/14 04:28:20;;;;;;;11.55;10.75;;;;;;;;;;4997206;28;20113;-66
2023/02/14 04:30:45;;;;;;;11.70;10.70;;;;;;;;;;4997005;28;20113;-65
2023/02/14 04:33:11;;;;;;;12.20;11.35;;;;;;;;;;4995519;28;20346;-66
2023/02/14 04:35:36;;;;;;;11.40;10.60;;;;;;;;;;4991648;28;20065;-66
2023/02/14 04:38:03;;;;;;;10.02;9.35;;;;;;;;;;4993769;28;20836;-66
2023/02/14 04:40:29;;;;;;;10.60;9.80;;;;;;;;;;4997877;28;20609;-66
2023/02/14 04:42:55;;;;;;;13.45;11.60;;;;;;;;;;5000317;28;20035;-66
2023/02/14 04:45:20;;;;;;;10.25;9.52;;;;;;;;;;4991694;28;20049;-65
2023/02/14 04:47:46;;;;;;;10.57;9.88;;;;;;;;;;4994563;28;20041;-66
2023/02/14 04:50:12;;;;;;;11.18;10.48;;;;;;;;;;4997881;28;20045;-66
2023/02/14 04:52:37;;;;;;;11.52;10.63;;;;;;;;;;4996050;28;20038;-65
2023/02/14 04:55:04;;;;;;;12.20;11.32;;;;;;;;;;4996182;28;20041;-66
2023/02/14 04:57:30;;;;;;;11.48;10.68;;;;;;;;;;4996342;28;20042;-66
2023/02/14 04:59:55;;;;;;;11.48;10.68;;;;;;;;;;4995927;28;20034;-65
2023/02/14 05:02:21;;;;;;;12.55;11.70;;;;;;;;;;4994815;28;20125;-65
2023/02/14 05:04:46;;;;;;;11.95;10.98;;;;;;;;;;4995013;28;20068;-66
2023/02/14 05:07:12;;;;;;;11.88;10.98;;;;;;;;;;4994116;28;20052;-65
2023/02/14 05:09:37;;;;;;;10.05;9.35;;;;;;;;;;4997960;28;20089;-65
2023/02/14 05:12:02;;;;;;;11.15;10.38;;;;;;;;;;4997651;28;20065;-65
2023/02/14 05:14:28;;;;;;;10.43;9.68;;;;;;;;;;4995482;28;20098;-66
2023/02/14 05:16:53;;;;;;;12.18;10.43;;;;;;;;;;4994151;28;20030;-66
2023/02/14 05:19:18;;;;;;;10.68;9.95;;;;;;;;;;4995727;28;20644;-66
2023/02/14 05:21:44;;;;;;;11.30;10.50;;;;;;;;;;4994229;28;20569;-67
2023/02/14 05:24:09;;;;;;;10.60;9.70;;;;;;;;;;4994622;28;20038;-66
2023/02/14 05:26:34;;;;;;;10.98;10.20;;;;;;;;;;4996121;28;20045;-66
2023/02/14 05:29:00;;;;;;;10.75;10.05;;;;;;;;;;4998196;28;20097;-66
2023/02/14 05:31:25;;;;;;;14.43;13.18;;;;;;;;;;4995259;28;20034;-66
2023/02/14 05:33:51;;;;;;;16.10;14.70;;;;;;;;;;4995280;28;20037;-67
2023/02/14 05:36:16;;;;;;;13.40;12.35;;;;;;;;;;4994271;28;20038;-67
2023/02/14 05:38:41;;;;;;;13.13;12.07;;;;;;;;;;4993356;28;20070;-66
2023/02/14 05:41:07;;;;;;;12.88;11.95;;;;;;;;;;4992519;28;20069;-67
2023/02/14 05:43:32;;;;;;;11.32;10.43;;;;;;;;;;4993194;28;20042;-67
2023/02/14 05:45:58;;;;;;;11.63;10.80;;;;;;;;;;4996345;28;20049;-65
2023/02/14 05:48:23;;;;;;;10.70;9.90;;;;;;;;;;4994597;28;20037;-66
2023/02/14 05:50:49;;;;;;;11.18;10.20;;;;;;;;;;4991242;28;20191;-65
2023/02/14 05:53:14;;;;;;;11.48;10.70;;;;;;;;;;4994669;28;20040;-66
2023/02/14 05:55:40;;;;;;;13.20;12.10;;;;;;;;;;4991927;28;20041;-66
2023/02/14 05:58:06;;;;;;;11.40;10.52;;;;;;;;;;4993629;28;20045;-66
2023/02/14 06:00:33;;;;;;;12.65;11.48;;;;;;;;;;4995313;28;20046;-66
2023/02/14 06:02:58;;;;;;;11.63;10.60;;;;;;;;;;4994842;28;20488;-66
2023/02/14 06:05:24;;;;;;;13.77;12.63;;;;;;;;;;4992769;28;20042;-65
2023/02/14 06:07:50;;;;;;;11.63;10.77;;;;;;;;;;4993128;28;20038;-65
2023/02/14 06:10:17;;;;;;;11.50;10.65;;;;;;;;;;4994518;28;20062;-66
2023/02/14 06:12:42;;;;;;;11.82;11.02;;;;;;;;;;4997270;28;20084;-65
2023/02/14 06:15:08;;;;;;;11.57;10.77;;;;;;;;;;4993432;28;20531;-66
2023/02/14 06:17:33;;;;;;;12.73;11.90;;;;;;;;;;4995678;28;20076;-65
2023/02/14 06:19:58;;;;;;;11.77;10.98;;;;;;;;;;4995491;28;20061;-66
2023/02/14 06:22:24;;;;;;;12.57;11.45;;;;;;;;;;4997846;28;20030;-66
2023/02/14 06:24:49;;;;;;;14.77;13.63;;;;;;;;;;4990009;28;20046;-65
2023/02/14 06:27:14;;;;;;;11.52;10.73;;;;;;;;;;4993885;28;20057;-66
2023/02/14 06:29:40;;;;;;;14.27;13.00;;;;;;;;;;4994022;28;20038;-67
2023/02/14 06:32:05;;;;;;;12.27;11.48;;;;;;;;;;4993015;28;20124;-66
2023/02/14 06:34:32;;;;;;;13.73;12.73;;;;;;;;;;4995129;28;20065;-66
2023/02/14 06:36:58;;;;;;;13.55;12.63;;;;;;;;;;4992636;28;22724;-66
2023/02/14 06:39:23;;;;;;;12.80;11.85;;;;;;;;;;4993001;28;20050;-66
2023/02/14 06:41:49;;;;;;;12.88;11.98;;;;;;;;;;4994487;28;20030;-66
2023/02/14 06:44:14;;;;;;;13.63;12.68;;;;;;;;;;4991843;28;20049;-66
2023/02/14 06:46:39;;;;;;;12.88;12.00;;;;;;;;;;4995631;28;20034;-65
2023/02/14 06:49:05;;;;;;;12.27;11.38;;;;;;;;;;4994971;28;20052;-65
2023/02/14 06:51:30;;;;;;;14.90;13.80;;;;;;;;;;4996437;28;20048;-66
2023/02/14 06:53:55;;;;;;;14.00;13.00;;;;;;;;;;4996122;28;20023;-66
2023/02/14 06:56:21;;;;;;;14.60;13.60;;;;;;;;;;4991867;28;20042;-66
2023/02/14 06:58:46;;;;;;;14.00;13.05;;;;;;;;;;4992871;28;20049;-62
2023/02/14 07:01:12;;;;;;;13.55;12.38;;;;;;;;;;4994105;28;20045;-62
2023/02/14 07:03:37;;;;;;;12.65;11.75;;;;;;;;;;4995844;28;20115;-62
2023/02/14 07:06:02;;;;;;;12.40;11.57;;;;;;;;;;4996410;28;20480;-62
2023/02/14 07:08:28;;;;;;;13.30;12.40;;;;;;;;;;4996917;28;20073;-62
2023/02/14 07:10:57;;;;;;;12.45;11.57;;;;;;;;;;4998465;28;20423;-62
2023/02/14 07:13:23;;;;;;;11.20;10.50;;;;;;;;;;4997712;28;20052;-62
2023/02/14 07:15:49;;;;;;;13.23;12.18;;;;;;;;;;4998782;28;20450;-62
2023/02/14 07:18:14;;;;;;;12.55;11.65;;;;;;;;;;4995395;28;20038;-65
2023/02/14 07:20:40;;;;;;;12.75;11.52;;;;;;;;;;4996439;28;20735;-66
2023/02/14 07:23:05;;;;;;;12.82;11.82;;;;;;;;;;4993423;28;20098;-66
2023/02/14 07:25:30;;;;;;;12.48;11.65;;;;;;;;;;4997564;28;20435;-65
2023/02/14 07:27:56;;;;;;;12.70;11.90;;;;;;;;;;4998475;28;20542;-65
2023/02/14 07:30:21;;;;;;;10.98;10.23;;;;;;;;;;4996904;28;20034;-65
2023/02/14 07:32:46;;;;;;;10.65;9.95;;;;;;;;;;4993316;28;20505;-66
2023/02/14 07:35:12;;;;;;;11.27;10.48;;;;;;;;;;5003083;28;20428;-66
2023/02/14 07:37:37;;;;;;;11.30;10.52;;;;;;;;;;4998245;28;20048;-65
2023/02/14 07:40:04;;;;;;;12.70;11.80;;;;;;;;;;4994956;28;20119;-66
2023/02/14 07:42:30;;;;;;;11.05;10.35;;;;;;;;;;4994932;28;20093;-66
2023/02/14 07:44:55;;;;;;;11.95;10.93;;;;;;;;;;4996674;28;20521;-66
2023/02/14 07:47:20;;;;;;;10.38;9.68;;;;;;;;;;4995392;28;20049;-62
2023/02/14 07:49:46;;;;;;;10.20;9.50;;;;;;;;;;4995240;28;20061;-62
2023/02/14 07:52:11;;;;;;;11.13;10.32;;;;;;;;;;4996009;28;20060;-62
2023/02/14 07:54:37;;;;;;;11.02;10.23;;;;;;;;;;4996072;28;20030;-62
2023/02/14 07:57:03;;;;;;;10.35;9.63;;;;;;;;;;4993914;28;21179;-62
2023/02/14 07:59:29;;;;;;;11.50;10.65;;;;;;;;;;4995519;28;20050;-62
2023/02/14 08:01:55;;;;;;;13.07;11.98;;;;;;;;;;4995051;28;20511;-62
2023/02/14 08:04:24;;;;;;;11.77;10.93;;;;;;;;;;4994502;28;20030;-63
2023/02/14 08:06:50;;;;;;;12.52;11.32;;;;;;;;;;4994976;28;20345;-62
2023/02/14 08:09:23;;;;;;;11.25;10.45;;;;;;;;;;4995035;28;20046;-62
2023/02/14 08:14:37;;;;;;;13.40;12.30;;;;;;;;;;4994824;28;20848;-62
2023/02/14 08:17:04;;;;;;;10.80;9.95;;;;;;;;;;4993451;28;20079;-62
2023/02/14 08:19:29;;;;;;;12.48;10.68;;;;;;;;;;4995273;28;20567;-62
2023/02/14 08:21:54;;;;;;;11.23;10.43;;;;;;;;;;4992773;28;20120;-62
2023/02/14 08:24:20;;;;;;;12.13;11.02;;;;;;;;;;4988261;28;20059;-62
2023/02/14 08:26:45;;;;;;;11.30;10.27;;;;;;;;;;4995795;28;20034;-62
2023/02/14 08:29:10;;;;;;;11.18;10.27;;;;;;;;;;4995170;28;20034;-62
2023/02/14 08:31:36;;;;;;;10.20;9.40;;;;;;;;;;4995232;28;20041;-62
2023/02/14 08:34:03;;;;;;;12.85;11.88;;;;;;;;;;4996600;28;20097;-62
2023/02/14 08:36:29;;;;;;;13.88;12.68;;;;;;;;;;4997506;28;20034;-62
2023/02/14 08:38:56;;;;;;;11.15;10.20;;;;;;;;;;4997428;28;20515;-62
2023/02/14 08:41:22;;;;;;;9.95;9.25;;;;;;;;;;4996647;28;20084;-62
2023/02/14 08:43:48;;;;;;;10.20;9.50;;;;;;;;;;4994765;28;20030;-62
2023/02/14 08:46:15;;;;;;;10.60;9.90;;;;;;;;;;4996015;28;20052;-62
2023/02/14 08:48:44;;;;;;;11.25;10.50;;;;;;;;;;4995716;28;20401;-62
2023/02/14 08:51:12;;;;;;;11.65;10.80;;;;;;;;;;4996546;28;20484;-62
2023/02/14 08:53:39;;;;;;;11.55;10.70;;;;;;;;;;4997207;28;20732;-62
2023/02/14 08:56:07;;;;;;;12.10;11.20;;;;;;;;;;4994770;28;20106;-62
2023/02/14 08:58:34;;;;;;;10.30;9.38;;;;;;;;;;4996172;28;20161;-62
2023/02/14 09:01:13;;;;;;;11.93;10.95;;;;;;;;;;4994692;28;20033;-62
2023/02/14 09:03:39;;;;;;;10.35;9.68;;;;;;;;;;4995640;28;20034;-63
2023/02/14 09:06:09;;;;;;;18.40;10.30;;;;;;;;;;4994420;28;20056;-62
2023/02/14 09:08:36;;;;;;;11.07;10.35;;;;;;;;;;4992637;28;20019;-62
2023/02/14 09:11:08;;;;;;;10.93;10.18;;;;;;;;;;4995709;28;20499;-63
2023/02/14 09:13:33;;;;;;;12.35;11.35;;;;;;;;;;4993549;28;20030;-63
2023/02/14 09:16:03;;;;;;;10.85;10.15;;;;;;;;;;4995756;28;20042;-63
2023/02/14 09:18:28;;;;;;;11.23;10.52;;;;;;;;;;4991467;28;20053;-62
2023/02/14 09:20:54;;;;;;;10.07;9.38;;;;;;;;;;4992754;28;20431;-62
2023/02/14 09:23:19;;;;;;;9.88;9.18;;;;;;;;;;4992907;28;20045;-62
2023/02/14 09:25:44;;;;;;;12.75;11.75;;;;;;;;;;4992978;28;20132;-62
2023/02/14 09:28:10;;;;;;;10.30;9.63;;;;;;;;;;4989078;28;20038;-62
2023/02/14 09:30:35;;;;;;;11.15;10.27;;;;;;;;;;4991706;28;20037;-63
2023/02/14 09:33:03;;;;;;;11.05;10.27;;;;;;;;;;4994194;28;20030;-63
2023/02/14 09:35:28;;;;;;;10.93;10.13;;;;;;;;;;4993249;28;20041;-62
2023/02/14 09:37:54;;;;;;;12.57;11.55;;;;;;;;;;4993901;28;20042;-63
2023/02/14 09:40:20;;;;;;;9.77;9.07;;;;;;;;;;4994038;28;20034;-63
2023/02/14 09:42:59;;;;;;;11.02;10.23;;;;;;;;;;4995733;28;20088;-63
2023/02/14 09:45:27;;;;;;;9.93;9.23;;;;;;;;;;4994709;28;20096;-63
2023/02/14 09:48:28;;;;;;;10.32;9.63;;;;;;;;;;4994007;28;20057;-63
2023/02/14 09:50:58;;;;;;;15.57;14.18;;;;;;;;;;4997640;28;20050;-63
2023/02/14 09:53:33;;;;;;;12.35;11.45;;;;;;;;;;4996755;28;20062;-63
2023/02/14 09:56:13;;;;;;;10.73;9.98;;;;;;;;;;4992998;28;20053;-62
2023/02/14 09:58:53;;;;;;;10.25;9.55;;;;;;;;;;4994782;28;20038;-63
2023/02/14 10:01:30;;;;;;;10.60;9.80;;;;;;;;;;4993101;28;20030;-62
2023/02/14 10:04:04;;;;;;;10.52;9.82;;;;;;;;;;4992745;28;20034;-63
2023/02/14 10:07:08;;;;;;;11.70;10.90;;;;;;;;;;4992770;28;20054;-63
2023/02/14 10:09:46;;;;;;;10.93;10.23;;;;;;;;;;4996028;28;20046;-63
2023/02/14 10:12:35;;;;;;;11.63;10.82;;;;;;;;;;4993859;28;20038;-63
2023/02/14 10:15:06;;;;;;;13.57;12.68;;;;;;;;;;4992546;28;20026;-62
2023/02/14 10:17:52;;;;;;;;;;;;;;;;;;4996482;28;20021;-63
2023/02/14 10:20:20;;;;;;;10.73;10.02;;;;;;;;;;4994668;28;20240;-62
2023/02/14 10:22:53;;;;;;;11.38;10.35;;;;;;;;;;4993797;28;20030;-62
2023/02/14 10:25:27;;;;;;;10.82;10.02;;;;;;;;;;4993341;28;20544;-63
2023/02/14 10:27:56;;;;;;;11.48;10.60;;;;;;;;;;4994338;28;20045;-63
2023/02/14 10:30:23;;;;;;;13.20;12.02;;;;;;;;;;4997252;28;20049;-63
2023/02/14 10:33:02;;;;;;;10.20;9.52;;;;;;;;;;4992210;28;20244;-62
2023/02/14 10:35:39;;;;;;;11.32;10.63;;;;;;;;;;4993049;28;20046;-63
2023/02/14 10:38:29;;;;;;;10.63;9.93;;;;;;;;;;4990703;28;20042;-62
2023/02/14 10:41:23;;;;;;;12.18;11.30;;;;;;;;;;4991086;28;20038;-63
2023/02/14 10:44:26;;;;;;;12.10;11.30;;;;;;;;;;4994669;28;20038;-62
2023/02/14 10:47:33;;;;;;;11.15;10.45;;;;;;;;;;4996811;28;20404;-63
2023/02/14 10:50:17;;;;;;;11.10;10.40;;;;;;;;;;4993252;28;20038;-63
2023/02/14 10:52:42;;;;;;;13.02;12.13;;;;;;;;;;4990939;28;20026;-62
2023/02/14 10:55:18;;;;;;;13.20;12.30;;;;;;;;;;4992698;28;20556;-62
2023/02/14 10:57:48;;;;;;;11.63;10.82;;;;;;;;;;4993793;28;20417;-62
2023/02/14 11:00:24;;;;;;;11.38;10.57;;;;;;;;;;4988741;28;20462;-63
2023/02/14 11:02:54;;;;;;;11.70;11.00;;;;;;;;;;4994135;28;20034;-62
2023/02/14 11:05:31;;;;;;;12.63;11.73;;;;;;;;;;4993242;28;20045;-63
2023/02/14 11:07:58;;;;;;;10.77;10.07;;;;;;;;;;5001125;28;20088;-63
2023/02/14 11:10:30;;;;;;;12.48;11.68;;;;;;;;;;4993790;28;20034;-63
2023/02/14 11:12:56;;;;;;;12.32;11.52;;;;;;;;;;4990218;28;20038;-63
2023/02/14 11:15:34;;;;;;;12.27;11.48;;;;;;;;;;4993908;28;20041;-63
2023/02/14 11:18:24;;;;;;;13.25;12.35;;;;;;;;;;4990986;28;20795;-63
2023/02/14 11:21:02;;;;;;;14.23;13.15;;;;;;;;;;4989836;28;20472;-63
2023/02/14 11:23:36;;;;;;;12.30;11.50;;;;;;;;;;4993922;28;20361;-63
2023/02/14 11:26:04;;;;;;;12.23;11.32;;;;;;;;;;4993430;28;20072;-63
2023/02/14 11:28:30;;;;;;;10.90;10.20;;;;;;;;;;4994165;28;20042;-63
2023/02/14 11:30:56;;;;;;;12.73;11.82;;;;;;;;;;4991592;28;20452;-63
2023/02/14 11:33:42;;;;;;;12.73;11.82;;;;;;;;;;4992840;28;20048;-63
2023/02/14 11:36:14;;;;;;;14.15;13.23;;;;;;;;;;4990399;28;20042;-63
2023/02/14 11:38:40;;;;;;;11.90;11.10;;;;;;;;;;4994195;28;20034;-63
2023/02/14 11:41:09;;;;;;;12.30;11.52;;;;;;;;;;4992129;28;20038;-62
2023/02/14 11:43:35;;;;;;;12.55;11.63;;;;;;;;;;4993685;28;20034;-63
2023/02/14 11:46:19;;;;;;;11.13;10.43;;;;;;;;;;4992072;28;20092;-63
2023/02/14 11:48:57;;;;;;;13.15;12.13;;;;;;;;;;4993916;28;20430;-63
2023/02/14 11:51:46;;;;;;;10.75;9.85;;;;;;;;;;4997312;28;20454;-62
2023/02/14 11:54:29;;;;;;;14.45;13.40;;;;;;;;;;4996311;28;20097;-63
2023/02/14 11:57:01;;;;;;;12.75;11.85;;;;;;;;;;5000412;28;20026;-63
2023/02/14 11:59:32;;;;;;;12.73;11.80;;;;;;;;;;4999259;28;20042;-62
2023/02/14 12:02:01;;;;;;;12.90;12.02;;;;;;;;;;4994677;28;20484;-62
2023/02/14 12:04:38;;;;;;;13.05;11.95;;;;;;;;;;4997064;28;20465;-62
2023/02/14 12:07:35;;;;;;;11.73;10.93;;;;;;;;;;4997467;28;20361;-62
2023/02/14 12:10:09;;;;;;;14.02;12.70;;;;;;;;;;4995098;28;20045;-62
2023/02/14 12:12:35;;;;;;;12.80;11.57;;;;;;;;;;5000168;28;20046;-62
2023/02/14 12:15:36;;;;;;;11.48;10.77;;;;;;;;;;4997510;28;20038;-62
2023/02/14 12:18:31;;;;;;;11.93;11.07;;;;;;;;;;4986746;28;20053;-63
2023/02/14 12:21:21;;;;;;;12.18;11.35;;;;;;;;;;4997533;28;20118;-63
2023/02/14 12:23:46;;;;;;;12.10;11.27;;;;;;;;;;4995875;28;20384;-62
2023/02/14 12:26:28;;;;;;;14.00;12.75;;;;;;;;;;4995551;28;20045;-62
2023/02/14 12:29:25;;;;;;;13.52;12.60;;;;;;;;;;4996166;28;20160;-63
2023/02/14 12:31:51;;;;;;;12.48;11.57;;;;;;;;;;4995504;28;20033;-63
2023/02/14 12:34:18;;;;;;;11.00;10.30;;;;;;;;;;4995803;28;20026;-63
2023/02/14 12:37:34;;;;;;;10.93;10.20;;;;;;;;;;4995980;28;20030;-62
2023/02/14 12:40:09;;;;;;;11.52;10.63;;;;;;;;;;4988211;28;20063;-63
2023/02/14 12:42:56;;;;;;;11.85;11.02;;;;;;;;;;4994990;28;20038;-63
2023/02/14 12:45:44;;;;;;;11.07;10.27;;;;;;;;;;4994972;28;20046;-63
2023/02/14 12:48:37;;;;;;;12.30;11.50;;;;;;;;;;4994140;28;20105;-63
2023/02/14 12:51:14;;;;;;;12.25;11.40;;;;;;;;;;4993235;28;20044;-63
2023/02/14 12:53:54;;;;;;;12.38;11.57;;;;;;;;;;4995070;28;20034;-63
2023/02/14 12:56:41;;;;;;;11.05;10.32;;;;;;;;;;4995625;28;20041;-62
2023/02/14 12:59:24;;;;;;;12.00;11.18;;;;;;;;;;4994758;28;20030;-63
2023/02/14 13:01:58;;;;;;;12.88;12.07;;;;;;;;;;4992412;28;20195;-63
2023/02/14 13:04:47;;;;;;;13.18;12.07;;;;;;;;;;4998954;28;20038;-63
2023/02/14 13:07:37;;;;;;;13.27;12.45;;;;;;;;;;4992705;28;20574;-63
2023/02/14 13:10:20;;;;;;;13.23;12.32;;;;;;;;;;4998978;28;20096;-63
2023/02/14 13:12:51;;;;;;;13.43;12.48;;;;;;;;;;4996591;28;20463;-62
2023/02/14 13:15:30;;;;;;;13.35;12.50;;;;;;;;;;4996153;28;20042;-63
2023/02/14 13:18:47;;;;;;;14.05;13.15;;;;;;;;;;4995696;28;20588;-63
2023/02/14 13:21:16;;;;;;;14.45;13.40;;;;;;;;;;4971030;28;20068;-63
2023/02/14 13:23:49;;;;;;;13.60;12.68;;;;;;;;;;4996103;28;20559;-63
2023/02/14 13:26:28;;;;;;;14.30;13.20;;;;;;;;;;4996324;28;20681;-63
2023/02/14 13:29:01;;;;;;;13.68;12.77;;;;;;;;;;5000683;28;20038;-63
2023/02/14 13:31:27;;;;;;;12.43;11.63;;;;;;;;;;4992676;28;20108;-62
2023/02/14 13:34:01;;;;;;;14.25;13.25;;;;;;;;;;4992242;28;20042;-63
2023/02/14 13:36:27;;;;;;;14.18;13.23;;;;;;;;;;5001039;28;20038;-63
2023/02/14 13:38:55;;;;;;;13.77;12.88;;;;;;;;;;4993670;28;20368;-63
2023/02/14 13:41:22;;;;;;;12.57;11.68;;;;;;;;;;4993338;28;20408;-62
2023/02/14 13:43:55;;;;;;;15.45;14.35;;;;;;;;;;4993615;28;20042;-62
2023/02/14 13:46:32;;;;;;;12.70;11.90;;;;;;;;;;4993039;28;20041;-63
2023/02/14 13:49:25;;;;;;;13.00;12.10;;;;;;;;;;4995417;28;20034;-62
2023/02/14 13:51:56;;;;;;;13.45;12.50;;;;;;;;;;4993529;28;20368;-62
2023/02/14 13:54:43;;;;;;;14.63;13.63;;;;;;;;;;4993693;28;20068;-63
2023/02/14 13:57:30;;;;;;;13.80;12.88;;;;;;;;;;4995815;28;20096;-63
2023/02/14 14:00:20;;;;;;;14.80;13.80;;;;;;;;;;4996845;28;20053;-63
2023/02/14 14:02:49;;;;;;;13.13;12.13;;;;;;;;;;4994613;28;20034;-63
2023/02/14 14:05:37;;;;;;;14.55;13.45;;;;;;;;;;4992908;28;20444;-62
2023/02/14 14:08:21;;;;;;;13.60;12.63;;;;;;;;;;4992672;28;20034;-63
2023/02/14 14:10:54;;;;;;;12.90;12.02;;;;;;;;;;4995017;28;20034;-63
2023/02/14 14:13:38;;;;;;;13.68;12.77;;;;;;;;;;4996588;28;20030;-63
2023/02/14 14:16:22;;;;;;;14.88;13.77;;;;;;;;;;4994097;28;20041;-63
2023/02/14 14:18:48;;;;;;;13.48;12.57;;;;;;;;;;4993505;28;20185;-63
2023/02/14 14:21:22;;;;;;;12.40;11.50;;;;;;;;;;4994268;28;20044;-63
2023/02/14 14:24:21;;;;;;;12.35;11.55;;;;;;;;;;4996745;28;20041;-62
2023/02/14 14:26:55;;;;;;;12.57;11.68;;;;;;;;;;4995319;28;20065;-61
2023/02/14 14:29:24;;;;;;;12.63;11.82;;;;;;;;;;4995021;28;20107;-63
2023/02/14 14:31:54;;;;;;;13.43;12.32;;;;;;;;;;4994494;28;20076;-62
2023/02/14 14:34:25;;;;;;;16.30;14.95;;;;;;;;;;4990193;28;20049;-62
2023/02/14 14:37:15;;;;;;;14.57;13.50;;;;;;;;;;4994258;28;20615;-62
2023/02/14 14:39:40;;;;;;;12.95;12.15;;;;;;;;;;4994063;28;20026;-62
2023/02/14 14:42:13;;;;;;;17.15;14.07;;;;;;;;;;4993158;28;20547;-63
2023/02/14 14:44:47;;;;;;;14.55;13.48;;;;;;;;;;4994881;28;20531;-63
2023/02/14 14:47:18;;;;;;;12.38;11.57;;;;;;;;;;4994058;28;20042;-62
2023/02/14 14:49:43;;;;;;;14.23;13.27;;;;;;;;;;4996077;28;20029;-62
2023/02/14 14:52:27;;;;;;;16.35;15.02;;;;;;;;;;4996294;28;20132;-62
2023/02/14 14:54:53;;;;;;;14.73;13.65;;;;;;;;;;4992893;28;20100;-62
2023/02/14 14:57:20;;;;;;;13.10;12.20;;;;;;;;;;4995201;28;20889;-62
2023/02/14 14:59:48;;;;;;;14.23;13.00;;;;;;;;;;4992536;28;20534;-62
2023/02/14 15:02:23;;;;;;;13.95;12.98;;;;;;;;;;4994938;28;20456;-62
2023/02/14 15:04:48;;;;;;;14.38;13.13;;;;;;;;;;4993256;28;20042;-62